createdAt,value
2023-03-20T00:02:00.265Z,12.30
2023-03-20T00:04:31.779Z,9.70
2023-03-20T00:06:58.631Z,9.13
2023-03-20T00:09:30.988Z,11.55
2023-03-20T00:12:02.173Z,11.32
2023-03-20T00:14:28.732Z,10.75
2023-03-20T00:16:55.188Z,10.23
2023-03-20T00:19:32.036Z,13.25
2023-03-20T00:22:00.832Z,12.23
2023-03-20T00:24:33.082Z,15.85
2023-03-20T00:27:02.735Z,10.68
2023-03-20T00:29:32.853Z,12.75
2023-03-20T00:32:01.797Z,17.67
2023-03-20T00:34:29.576Z,20.20
2023-03-20T00:37:00.398Z,16.45
2023-03-20T00:39:29.553Z,15.07
2023-03-20T00:42:02.631Z,13.63
2023-03-20T00:44:41.815Z,15.00
2023-03-20T00:47:19.137Z,15.68
2023-03-20T00:49:50.721Z,16.42
2023-03-20T00:52:22.479Z,14.63
2023-03-20T00:54:48.974Z,15.55
2023-03-20T00:57:28.167Z,17.33
2023-03-20T01:00:02.299Z,16.92
2023-03-20T01:02:31.866Z,13.65
2023-03-20T01:05:03.630Z,15.93
2023-03-20T01:07:30.149Z,15.85
2023-03-20T01:09:59.176Z,16.20
2023-03-20T01:12:26.601Z,16.45
2023-03-20T01:14:58.692Z,15.98
2023-03-20T01:17:27.401Z,19.40
2023-03-20T01:19:54.018Z,13.57
2023-03-20T01:22:20.775Z,13.63
2023-03-20T01:24:48.717Z,14.73
2023-03-20T01:27:17.805Z,15.73
2023-03-20T01:29:49.360Z,14.75
2023-03-20T01:32:18.742Z,14.95
2023-03-20T01:34:45.249Z,13.52
2023-03-20T01:37:17.035Z,17.85
2023-03-20T01:39:46.307Z,17.13
2023-03-20T01:42:18.569Z,12.88
2023-03-20T01:44:45.701Z,12.68
2023-03-20T01:47:19.569Z,14.15
2023-03-20T01:50:23.017Z,12.45
2023-03-20T01:52:54.329Z,9.90
2023-03-20T01:55:22.508Z,10.80
2023-03-20T01:57:51.456Z,10.00
2023-03-20T02:00:20.194Z,8.35
2023-03-20T02:02:48.318Z,8.93
2023-03-20T02:05:18.760Z,11.40
2023-03-20T02:07:49.973Z,11.02
2023-03-20T02:10:20.523Z,7.78
2023-03-20T02:12:51.718Z,8.63
2023-03-20T02:15:18.737Z,7.97
2023-03-20T02:17:45.470Z,6.88
2023-03-20T02:20:33.107Z,9.73
2023-03-20T02:23:05.319Z,6.40
2023-03-20T02:25:43.849Z,9.80
2023-03-20T02:28:48.602Z,7.50
2023-03-20T02:31:33.785Z,8.82
2023-03-20T02:34:19.297Z,7.72
2023-03-20T02:37:22.153Z,8.32
2023-03-20T02:39:51.666Z,9.98
2023-03-20T02:42:33.271Z,6.78
2023-03-20T02:45:17.523Z,10.45
2023-03-20T02:48:00.049Z,9.55
2023-03-20T02:50:54.396Z,7.07
2023-03-20T02:53:26.580Z,4.97
2023-03-20T02:56:14.347Z,10.13
2023-03-20T02:59:12.263Z,8.38
2023-03-20T03:04:21.149Z,9.07
2023-03-20T03:06:55.777Z,8.35
2023-03-20T03:09:32.438Z,9.02
2023-03-20T03:12:16.592Z,8.23
2023-03-20T03:14:53.822Z,8.32
2023-03-20T03:17:26.223Z,13.95
2023-03-20T03:20:07.870Z,11.05
2023-03-20T03:22:36.313Z,8.73
2023-03-20T03:25:05.111Z,12.52
2023-03-20T03:27:42.372Z,14.25
2023-03-20T03:30:24.996Z,12.17
2023-03-20T03:33:11.392Z,11.05
2023-03-20T03:35:41.622Z,9.85
2023-03-20T03:38:36.016Z,14.60
2023-03-20T03:41:10.321Z,11.05
2023-03-20T03:44:12.031Z,19.48
2023-03-20T03:46:58.053Z,14.77
2023-03-20T03:49:34.223Z,12.30
2023-03-20T03:52:09.992Z,17.15
2023-03-20T03:54:45.970Z,20.48
2023-03-20T03:57:16.660Z,18.00
2023-03-20T03:59:50.168Z,20.23
2023-03-20T04:02:23.114Z,15.02
2023-03-20T04:04:55.802Z,19.38
2023-03-20T04:07:29.358Z,19.05
2023-03-20T04:10:00.928Z,16.65
2023-03-20T04:12:37.207Z,12.85
2023-03-20T04:15:05.023Z,14.45
2023-03-20T04:17:32.037Z,15.48
2023-03-20T04:19:58.981Z,12.10
2023-03-20T04:22:27.806Z,12.57
2023-03-20T04:24:56.591Z,16.02
2023-03-20T04:27:25.378Z,23.05
2023-03-20T04:29:54.179Z,15.50
2023-03-20T04:32:25.499Z,12.77
2023-03-20T04:34:54.331Z,14.20
2023-03-20T04:37:25.692Z,16.75
2023-03-20T04:39:53.246Z,13.82
2023-03-20T04:42:24.602Z,15.27
2023-03-20T04:44:51.106Z,14.40
2023-03-20T04:47:17.547Z,17.00
2023-03-20T04:49:46.096Z,16.40
2023-03-20T04:52:12.595Z,18.23
2023-03-20T04:54:41.320Z,17.15
2023-03-20T04:57:10.385Z,15.98
2023-03-20T04:59:36.858Z,20.05
2023-03-20T05:02:03.439Z,18.40
2023-03-20T05:04:35.001Z,20.80
2023-03-20T05:07:01.560Z,16.67
2023-03-20T05:09:28.126Z,20.63
2023-03-20T05:11:57.727Z,15.85
2023-03-20T05:14:26.627Z,14.93
2023-03-20T05:16:55.522Z,22.40
2023-03-20T05:19:22.342Z,16.98
2023-03-20T05:21:48.838Z,20.02
2023-03-20T05:24:15.403Z,19.88
2023-03-20T05:26:47.292Z,16.15
2023-03-20T05:29:16.332Z,16.23
2023-03-20T05:31:42.825Z,17.48
2023-03-20T05:34:11.491Z,18.20
2023-03-20T05:36:39.223Z,18.38
2023-03-20T05:39:06.270Z,16.17
2023-03-20T05:41:35.305Z,14.90
2023-03-20T05:44:07.258Z,17.08
2023-03-20T05:46:33.793Z,16.63
2023-03-20T05:49:00.842Z,23.65
2023-03-20T05:51:29.722Z,17.95
2023-03-20T05:53:56.286Z,18.75
2023-03-20T05:56:25.079Z,20.05
2023-03-20T05:58:54.167Z,14.45
2023-03-20T06:01:26.090Z,20.95
2023-03-20T06:03:52.606Z,19.50
2023-03-20T06:06:19.092Z,14.10
2023-03-20T06:08:46.665Z,15.43
2023-03-20T06:11:21.154Z,16.88
2023-03-20T06:13:50.040Z,13.70
2023-03-20T06:16:16.562Z,10.32
2023-03-20T06:18:43.039Z,13.90
2023-03-20T06:21:14.511Z,13.25
2023-03-20T06:23:41.022Z,12.98
2023-03-20T06:26:08.169Z,11.82
2023-03-20T06:28:37.166Z,13.60
2023-03-20T06:31:03.758Z,15.43
2023-03-20T06:33:30.364Z,14.77
2023-03-20T06:35:56.909Z,12.55
2023-03-20T06:38:23.366Z,14.50
2023-03-20T06:40:54.517Z,16.08
2023-03-20T06:43:23.434Z,19.67
2023-03-20T06:45:55.543Z,14.10
2023-03-20T06:48:24.462Z,9.05
2023-03-20T06:50:52.893Z,18.63
2023-03-20T06:53:20.155Z,10.88
2023-03-20T06:55:48.078Z,20.10
2023-03-20T06:58:17.434Z,18.63
2023-03-20T07:00:44.458Z,11.52
2023-03-20T07:03:12.730Z,10.73
2023-03-20T07:08:11.791Z,21.35
2023-03-20T07:10:39.161Z,18.23
2023-03-20T07:13:07.923Z,10.97
2023-03-20T07:15:37.153Z,11.15
2023-03-20T07:18:03.910Z,12.80
2023-03-20T07:20:30.708Z,15.60
2023-03-20T07:22:59.677Z,15.43
2023-03-20T07:25:41.315Z,21.85
2023-03-20T07:28:11.912Z,14.20
2023-03-20T07:30:38.407Z,13.98
2023-03-20T07:33:05.048Z,15.02
2023-03-20T07:35:34.104Z,10.05
2023-03-20T07:38:00.995Z,14.43
2023-03-20T07:40:27.468Z,14.10
2023-03-20T07:42:56.143Z,17.77
2023-03-20T07:45:22.726Z,13.13
2023-03-20T07:47:49.515Z,11.68
2023-03-20T07:50:19.371Z,10.07
2023-03-20T07:52:49.425Z,15.15
2023-03-20T07:55:18.447Z,12.40
2023-03-20T07:57:45.330Z,12.35
2023-03-20T08:00:15.266Z,9.48
2023-03-20T08:02:42.046Z,10.85
2023-03-20T08:05:11.309Z,14.02
2023-03-20T08:07:40.085Z,14.40
2023-03-20T08:10:06.842Z,13.00
2023-03-20T08:12:35.729Z,17.77
2023-03-20T08:15:03.251Z,8.02
2023-03-20T08:17:29.789Z,12.73
2023-03-20T08:19:56.544Z,12.32
2023-03-20T08:22:23.000Z,11.38
2023-03-20T08:24:54.091Z,15.60
2023-03-20T08:27:22.936Z,9.27
2023-03-20T08:29:49.489Z,10.45
2023-03-20T08:32:16.069Z,13.45
2023-03-20T08:34:42.712Z,12.55
2023-03-20T08:37:14.002Z,10.15
2023-03-20T08:39:43.070Z,11.68
2023-03-20T08:42:09.606Z,8.02
2023-03-20T08:44:36.317Z,14.88
2023-03-20T08:47:03.521Z,11.25
2023-03-20T08:49:32.412Z,13.10
2023-03-20T08:51:59.734Z,12.70
2023-03-20T08:54:29.026Z,15.55
2023-03-20T08:56:57.864Z,11.40
2023-03-20T08:59:31.345Z,9.20
2023-03-20T09:01:57.994Z,9.45
2023-03-20T09:04:25.521Z,9.20
2023-03-20T09:06:55.003Z,10.25
2023-03-20T09:09:27.058Z,9.55
2023-03-20T09:11:56.707Z,10.32
2023-03-20T09:14:24.412Z,10.32
2023-03-20T09:16:50.895Z,11.25
2023-03-20T09:19:18.739Z,12.52
2023-03-20T09:21:48.804Z,11.25
2023-03-20T09:24:17.815Z,11.75
2023-03-20T09:26:44.381Z,8.52
2023-03-20T09:29:11.166Z,7.70
2023-03-20T09:31:41.425Z,8.65
2023-03-20T09:34:07.925Z,13.15
2023-03-20T09:36:34.415Z,7.63
2023-03-20T09:39:05.899Z,11.10
2023-03-20T09:41:48.983Z,10.32
2023-03-20T09:44:52.977Z,8.15
2023-03-20T09:47:28.124Z,9.80
2023-03-20T09:50:23.781Z,7.80
2023-03-20T09:53:06.946Z,6.28
2023-03-20T09:55:36.576Z,10.32
2023-03-20T09:58:13.319Z,15.02
2023-03-20T10:00:42.679Z,8.70
2023-03-20T10:03:27.585Z,6.65
2023-03-20T10:06:01.843Z,12.57
2023-03-20T10:08:36.687Z,11.07
2023-03-20T10:11:41.338Z,8.10
2023-03-20T10:14:24.504Z,8.60
2023-03-20T10:16:59.984Z,8.55
2023-03-20T10:19:45.523Z,9.82
2023-03-20T10:22:34.579Z,8.20
2023-03-20T10:25:13.046Z,11.23
2023-03-20T10:27:44.265Z,8.70
2023-03-20T10:30:52.130Z,9.02
2023-03-20T10:33:43.012Z,6.40
2023-03-20T10:36:30.245Z,9.20
2023-03-20T10:39:19.854Z,7.15
2023-03-20T10:41:54.952Z,10.23
2023-03-20T10:44:28.861Z,8.25
2023-03-20T10:47:01.697Z,8.65
2023-03-20T10:49:44.497Z,4.85
2023-03-20T10:52:16.484Z,7.88
2023-03-20T10:54:52.725Z,7.35
2023-03-20T10:57:32.097Z,5.50
2023-03-20T11:00:05.510Z,6.60
2023-03-20T11:02:32.419Z,7.63
2023-03-20T11:05:00.569Z,7.55
2023-03-20T11:07:37.111Z,8.57
2023-03-20T11:10:10.357Z,7.82
2023-03-20T11:12:52.601Z,8.68
2023-03-20T11:15:31.487Z,12.40
2023-03-20T11:18:04.651Z,13.20
2023-03-20T11:20:42.080Z,7.30
2023-03-20T11:23:16.839Z,6.47
2023-03-20T11:25:52.426Z,10.85
2023-03-20T11:28:41.529Z,6.18
2023-03-20T11:31:10.944Z,11.90
2023-03-20T11:33:42.636Z,10.82
2023-03-20T11:36:33.022Z,9.00
2023-03-20T11:39:26.866Z,7.47
2023-03-20T11:41:58.277Z,9.38
2023-03-20T11:44:46.150Z,7.88
2023-03-20T11:47:19.449Z,9.40
2023-03-20T11:50:06.453Z,7.82
2023-03-20T11:52:40.200Z,14.35
2023-03-20T11:55:32.060Z,10.55
2023-03-20T11:58:00.678Z,12.10
2023-03-20T12:00:37.496Z,13.60
2023-03-20T12:03:33.283Z,15.88
2023-03-20T12:06:06.064Z,12.93
2023-03-20T12:08:36.847Z,9.52
2023-03-20T12:11:19.504Z,11.88
2023-03-20T12:13:51.283Z,10.52
2023-03-20T12:16:25.699Z,12.68
2023-03-20T12:18:57.696Z,8.50
2023-03-20T12:21:38.615Z,15.07
2023-03-20T12:24:13.600Z,15.35
2023-03-20T12:26:58.923Z,13.43
2023-03-20T12:29:50.306Z,11.60
2023-03-20T12:32:46.461Z,12.85
2023-03-20T12:35:32.253Z,12.50
2023-03-20T12:38:01.356Z,10.35
2023-03-20T12:40:42.020Z,10.25
2023-03-20T12:43:22.003Z,9.75
2023-03-20T12:46:05.530Z,12.43
2023-03-20T12:48:38.220Z,11.98
2023-03-20T12:51:28.422Z,11.10
2023-03-20T12:54:13.821Z,13.80
2023-03-20T12:56:55.268Z,11.93
2023-03-20T12:59:39.478Z,9.50
2023-03-20T13:02:15.532Z,13.70
2023-03-20T13:05:10.668Z,11.98
2023-03-20T13:07:52.806Z,14.57
2023-03-20T13:10:25.053Z,9.88
2023-03-20T13:13:06.773Z,10.25
2023-03-20T13:16:19.414Z,14.55
2023-03-20T13:19:08.069Z,11.70
2023-03-20T13:21:56.634Z,12.68
2023-03-20T13:25:02.728Z,12.52
2023-03-20T13:27:39.189Z,9.52
2023-03-20T13:30:19.262Z,15.07
2023-03-20T13:33:00.876Z,11.85
2023-03-20T13:35:42.230Z,11.07
2023-03-20T13:38:15.547Z,15.23
2023-03-20T13:40:45.728Z,14.82
2023-03-20T13:43:23.926Z,12.27
2023-03-20T13:45:59.545Z,11.40
2023-03-20T13:48:40.603Z,13.50
2023-03-20T13:51:15.027Z,11.43
2023-03-20T13:53:51.319Z,13.25
2023-03-20T13:56:31.901Z,13.60
2023-03-20T13:59:03.726Z,10.02
2023-03-20T14:01:47.377Z,12.57
2023-03-20T14:04:18.724Z,11.90
2023-03-20T14:06:56.851Z,14.32
2023-03-20T14:12:08.256Z,13.48
2023-03-20T14:14:55.138Z,11.40
2023-03-20T14:17:26.642Z,13.30
2023-03-20T14:19:57.234Z,15.63
2023-03-20T14:22:34.964Z,11.70
2023-03-20T14:25:08.659Z,10.55
2023-03-20T14:27:53.169Z,11.65
2023-03-20T14:30:31.939Z,11.50
2023-03-20T14:33:22.580Z,12.35
2023-03-20T14:35:50.978Z,15.55
2023-03-20T14:38:33.063Z,17.83
2023-03-20T14:41:01.990Z,14.85
2023-03-20T14:43:52.612Z,17.58
2023-03-20T14:46:45.370Z,14.82
2023-03-20T14:49:43.047Z,13.35
2023-03-20T14:52:40.739Z,13.30
2023-03-20T14:55:26.830Z,11.40
2023-03-20T14:57:57.485Z,10.13
2023-03-20T15:00:27.403Z,12.48
2023-03-20T15:02:58.780Z,12.55
2023-03-20T15:05:33.063Z,10.52
2023-03-20T15:08:09.520Z,14.18
2023-03-20T15:10:44.038Z,10.60
2023-03-20T15:13:15.304Z,19.80
2023-03-20T15:15:53.915Z,10.95
2023-03-20T15:18:25.824Z,14.27
2023-03-20T15:20:52.813Z,17.20
2023-03-20T15:23:19.563Z,15.20
2023-03-20T15:25:49.816Z,10.68
2023-03-20T15:28:23.868Z,20.65
2023-03-20T15:30:57.207Z,10.32
2023-03-20T15:33:31.157Z,19.75
2023-03-20T15:35:57.958Z,11.85
2023-03-20T15:38:32.331Z,10.15
2023-03-20T15:40:58.821Z,16.60
2023-03-20T15:43:28.136Z,10.05
2023-03-20T15:46:16.241Z,8.23
2023-03-20T15:48:48.605Z,14.05
2023-03-20T15:51:16.381Z,13.95
2023-03-20T15:53:48.603Z,9.15
2023-03-20T15:56:19.414Z,8.80
2023-03-20T15:58:49.106Z,11.65
2023-03-20T16:01:21.954Z,9.93
2023-03-20T16:03:49.031Z,12.38
2023-03-20T16:06:19.755Z,11.00
2023-03-20T16:08:58.975Z,8.88
2023-03-20T16:11:28.003Z,13.20
2023-03-20T16:13:54.682Z,8.63
2023-03-20T16:16:23.848Z,9.80
2023-03-20T16:18:51.222Z,9.95
2023-03-20T16:21:55.712Z,8.15
2023-03-20T16:24:28.916Z,13.88
2023-03-20T16:26:55.904Z,15.98
2023-03-20T16:29:25.430Z,18.20
2023-03-20T16:31:56.947Z,17.17
2023-03-20T16:34:34.215Z,13.82
2023-03-20T16:37:20.740Z,13.47
2023-03-20T16:39:49.540Z,13.63
2023-03-20T16:42:25.821Z,10.80
2023-03-20T16:44:57.386Z,17.42
2023-03-20T16:47:36.517Z,19.15
2023-03-20T16:50:22.145Z,21.80
2023-03-20T16:53:00.276Z,17.30
2023-03-20T16:58:05.931Z,19.70
2023-03-20T17:00:42.780Z,18.45
2023-03-20T17:03:24.856Z,16.27
2023-03-20T17:05:59.512Z,14.13
2023-03-20T17:08:46.003Z,17.63
2023-03-20T17:11:22.338Z,17.60
2023-03-20T17:13:53.631Z,17.33
2023-03-20T17:16:24.234Z,19.95
2023-03-20T17:19:10.572Z,12.48
2023-03-20T17:21:41.171Z,15.13
2023-03-20T17:24:07.883Z,16.23
2023-03-20T17:26:34.393Z,16.75
2023-03-20T17:29:03.210Z,14.60
2023-03-20T17:31:29.813Z,16.20
2023-03-20T17:33:56.494Z,28.27
2023-03-20T17:36:28.976Z,14.27
2023-03-20T17:39:01.388Z,17.80
2023-03-20T17:41:28.522Z,16.60
2023-03-20T17:43:58.096Z,14.63
2023-03-20T17:46:30.285Z,22.83
2023-03-20T17:49:12.552Z,20.35
2023-03-20T17:51:41.579Z,14.35
2023-03-20T17:54:10.467Z,13.68
2023-03-20T17:56:42.072Z,20.00
2023-03-20T17:59:17.275Z,18.67
2023-03-20T18:01:44.238Z,15.38
2023-03-20T18:04:10.776Z,17.80
2023-03-20T18:06:37.281Z,27.58
2023-03-20T18:09:04.357Z,14.52
2023-03-20T18:11:30.864Z,20.42
2023-03-20T18:13:57.440Z,24.65
2023-03-20T18:16:30.633Z,16.05
2023-03-20T18:19:01.507Z,18.17
2023-03-20T18:21:28.455Z,20.42
2023-03-20T18:23:54.983Z,18.35
2023-03-20T18:26:29.222Z,19.38
2023-03-20T18:28:56.245Z,17.52
2023-03-20T18:31:26.385Z,16.42
2023-03-20T18:33:53.455Z,19.02
2023-03-20T18:36:24.474Z,22.00
2023-03-20T18:38:54.122Z,19.38
2023-03-20T18:41:20.898Z,19.05
2023-03-20T18:43:50.760Z,21.25
2023-03-20T18:46:20.152Z,15.35
2023-03-20T18:48:47.246Z,15.40
2023-03-20T18:51:14.446Z,20.30
2023-03-20T18:53:44.132Z,18.10
2023-03-20T18:56:16.544Z,21.83
2023-03-20T18:58:46.814Z,22.90
2023-03-20T19:01:17.384Z,14.23
2023-03-20T19:03:45.690Z,17.05
2023-03-20T19:06:26.610Z,21.77
2023-03-20T19:08:53.485Z,16.38
2023-03-20T19:11:21.719Z,14.15
2023-03-20T19:13:52.795Z,18.42
2023-03-20T19:16:24.466Z,15.55
2023-03-20T19:18:58.603Z,17.77
2023-03-20T19:21:29.211Z,22.80
2023-03-20T19:24:00.274Z,17.27
2023-03-20T19:26:31.655Z,19.77
2023-03-20T19:29:01.197Z,15.85
2023-03-20T19:31:30.536Z,15.10
2023-03-20T19:33:57.152Z,18.58
2023-03-20T19:36:29.581Z,22.73
2023-03-20T19:38:59.501Z,14.40
2023-03-20T19:41:29.597Z,14.23
2023-03-20T19:43:57.057Z,15.18
2023-03-20T19:46:39.542Z,18.77
2023-03-20T19:49:17.822Z,14.98
2023-03-20T19:51:48.155Z,13.32
2023-03-20T19:54:17.861Z,17.55
2023-03-20T19:56:46.704Z,17.30
2023-03-20T19:59:17.767Z,15.52
2023-03-20T20:01:47.390Z,13.60
2023-03-20T20:04:14.693Z,14.90
2023-03-20T20:06:41.884Z,16.00
2023-03-20T20:09:11.524Z,20.17
2023-03-20T20:11:38.120Z,18.33
2023-03-20T20:14:08.546Z,21.08
2023-03-20T20:16:37.011Z,18.52
2023-03-20T20:19:08.361Z,14.23
2023-03-20T20:24:24.259Z,18.17
2023-03-20T20:27:11.606Z,12.57
2023-03-20T20:29:42.361Z,17.33
2023-03-20T20:32:11.606Z,17.08
2023-03-20T20:40:17.918Z,14.95
2023-03-20T20:42:51.414Z,18.25
2023-03-20T20:45:20.355Z,13.95
2023-03-20T20:47:50.393Z,11.65
2023-03-20T20:50:24.031Z,16.58
2023-03-20T20:52:51.616Z,13.30
2023-03-20T20:55:23.544Z,15.63
2023-03-20T20:57:52.073Z,9.38
2023-03-20T21:00:34.060Z,9.73
2023-03-20T21:03:08.048Z,11.68
2023-03-20T21:05:38.456Z,10.88
2023-03-20T21:08:05.397Z,12.27
2023-03-20T21:10:31.873Z,8.13
2023-03-20T21:12:59.887Z,8.43
2023-03-20T21:15:29.575Z,8.52
2023-03-20T21:18:03.412Z,8.63
2023-03-20T21:20:33.335Z,10.40
2023-03-20T21:22:59.820Z,10.32
2023-03-20T21:25:39.227Z,6.78
2023-03-20T21:28:10.406Z,9.27
2023-03-20T21:30:49.867Z,7.28
2023-03-20T21:33:28.406Z,10.88
2023-03-20T21:35:54.910Z,6.90
2023-03-20T21:41:13.868Z,10.07
2023-03-20T21:43:41.323Z,7.78
2023-03-20T21:49:47.780Z,12.00
2023-03-20T21:58:03.374Z,9.68
2023-03-20T22:02:59.635Z,14.00
2023-03-20T22:06:19.519Z,11.80
2023-03-20T22:17:51.000Z,11.82
2023-03-20T22:25:57.560Z,8.52
2023-03-20T22:28:49.836Z,10.50
2023-03-20T22:34:25.808Z,7.68
2023-03-20T22:40:02.286Z,9.57
2023-03-20T22:42:43.734Z,12.38
2023-03-20T22:45:00.353Z,8.73
2023-03-20T22:47:28.086Z,13.33
2023-03-20T22:49:57.128Z,11.15
2023-03-20T22:52:45.437Z,8.60
2023-03-20T22:55:12.328Z,8.02
2023-03-20T22:57:45.613Z,13.05
2023-03-20T23:00:21.847Z,9.13
2023-03-20T23:02:52.935Z,9.48
2023-03-20T23:05:19.460Z,11.73
2023-03-20T23:07:46.094Z,9.45
2023-03-20T23:10:18.115Z,7.60
2023-03-20T23:12:49.904Z,9.45
2023-03-20T23:15:16.391Z,12.52
2023-03-20T23:17:47.656Z,11.07
2023-03-20T23:20:18.831Z,7.88
2023-03-20T23:22:47.732Z,10.50
2023-03-20T23:25:30.758Z,12.18
2023-03-20T23:28:02.829Z,7.20
2023-03-20T23:30:37.977Z,9.90
2023-03-20T23:33:12.517Z,9.70
2023-03-20T23:35:38.982Z,8.23
2023-03-20T23:38:08.163Z,10.35
2023-03-20T23:40:35.231Z,8.82
2023-03-20T23:43:04.003Z,6.95
2023-03-20T23:45:33.021Z,7.85
2023-03-20T23:48:02.100Z,8.32
2023-03-20T23:50:36.875Z,12.10
2023-03-20T23:53:20.709Z,7.85
2023-03-20T23:55:52.259Z,10.38
2023-03-20T23:58:22.916Z,13.35
